Terminal Aerodrome Forecast
Issued by NWS

Home | Current Version | Previous Version | Text Only | Print | Product List | Glossary On
Versions: 1 2 3 4 5 6 7 8 9 10 11 12 13 14 15 16 17 18 19 20
000
FTUS45 KPIH 081120
TAFSUN
TAF
KSUN 081120Z 0812/0912 VRB04KT P6SM SCT025 SCT200
     FM081900 13008KT P6SM VCSH FEW008 BKN110
     FM082100 14008KT 6SM -SN SCT008 BKN025 OVC050
     FM090300 VRB04KT 4SM -SN BR BKN008 OVC015
      AMD LTD TO CLD VIS AND WIND TIL 081400=

USA.gov is the U.S. government's official web portal to all federal, state and local government web resources and services.